Time;durP1;ratioP1;P1;durP2;ratioP2;P2;SDS_P1;SDS_P2;PMS_P1;PMS_P2;Temp;Humidity;BMP_temperature;BMP_pressure;BME280_temperature;BME280_humidity;BME280_pressure;Samples;Min_cycle;Max_cycle;Signal;HPM_P1;HPM_P2
2023/12/25 00:00:39;;;;;;;7.47;1.70;;;11.60;99.90;;;;;;4966472;29;20048;-86
2023/12/25 00:03:06;;;;;;;6.22;1.60;;;11.70;99.90;;;;;;4936273;29;20662;-86
2023/12/25 00:05:32;;;;;;;8.10;1.92;;;11.60;99.90;;;;;;4948688;29;20545;-86
2023/12/25 00:07:59;;;;;;;11.40;1.90;;;11.60;99.90;;;;;;4951551;29;20055;-87
2023/12/25 00:10:26;;;;;;;10.32;1.98;;;11.60;99.90;;;;;;4946366;29;20872;-86
2023/12/25 00:12:52;;;;;;;7.57;2.00;;;11.60;99.90;;;;;;4952715;29;20042;-86
2023/12/25 00:15:19;;;;;;;9.25;1.85;;;11.60;99.90;;;;;;4952685;29;20039;-86
2023/12/25 00:17:46;;;;;;;8.15;1.60;;;11.60;99.90;;;;;;4950652;29;20119;-86
2023/12/25 00:20:12;;;;;;;6.50;1.50;;;11.60;99.90;;;;;;4938727;29;20086;-86
2023/12/25 00:22:39;;;;;;;7.50;1.50;;;11.60;99.90;;;;;;4960621;29;20050;-86
2023/12/25 00:25:06;;;;;;;9.38;1.80;;;11.60;99.90;;;;;;4958174;29;20104;-86
2023/12/25 00:27:33;;;;;;;9.52;2.15;;;11.60;99.90;;;;;;4938554;29;20033;-86
2023/12/25 00:29:59;;;;;;;6.13;1.70;;;11.50;99.90;;;;;;4948848;29;20095;-86
2023/12/25 00:32:26;;;;;;;9.98;1.90;;;11.50;99.90;;;;;;4947655;29;20083;-86
2023/12/25 00:34:52;;;;;;;16.08;2.10;;;11.60;99.90;;;;;;4949724;29;20051;-86
2023/12/25 00:37:19;;;;;;;9.98;1.92;;;11.50;99.90;;;;;;4966583;29;20038;-86
2023/12/25 00:39:46;;;;;;;7.75;1.40;;;11.50;99.90;;;;;;4949255;29;20449;-86
2023/12/25 00:42:13;;;;;;;12.88;2.10;;;11.50;99.90;;;;;;4953373;29;20052;-86
2023/12/25 00:44:39;;;;;;;12.00;1.80;;;11.50;99.90;;;;;;4956076;29;20072;-86
2023/12/25 00:47:06;;;;;;;14.00;1.98;;;11.40;99.90;;;;;;4954520;29;20036;-86
2023/12/25 00:49:33;;;;;;;9.55;1.90;;;11.50;99.90;;;;;;4944048;29;20048;-86
2023/12/25 00:52:00;;;;;;;9.23;1.60;;;11.50;99.90;;;;;;4958848;29;20047;-86
2023/12/25 00:54:27;;;;;;;11.85;2.10;;;11.60;99.90;;;;;;4955597;29;20040;-86
2023/12/25 00:56:53;;;;;;;8.82;1.60;;;11.60;99.90;;;;;;4956261;29;20171;-86
2023/12/25 00:59:20;;;;;;;8.50;1.80;;;11.60;99.90;;;;;;4951287;29;20537;-86
2023/12/25 01:01:47;;;;;;;9.50;1.70;;;11.50;99.90;;;;;;4948467;29;20152;-86
2023/12/25 01:04:13;;;;;;;12.13;1.92;;;11.60;99.90;;;;;;4948125;29;20510;-86
2023/12/25 01:06:40;;;;;;;7.43;1.60;;;11.50;99.90;;;;;;4955786;29;20042;-86
2023/12/25 01:09:06;;;;;;;9.05;1.75;;;11.50;99.90;;;;;;4944654;29;20116;-86
2023/12/25 01:11:40;;;;;;;10.45;1.63;;;11.50;99.90;;;;;;4936485;29;20050;-86
2023/12/25 01:14:07;;;;;;;8.80;1.63;;;11.50;99.90;;;;;;4948002;29;20122;-86
2023/12/25 01:16:34;;;;;;;11.18;2.38;;;11.50;99.90;;;;;;4966428;29;20036;-86
2023/12/25 01:19:01;;;;;;;8.73;1.65;;;11.40;99.90;;;;;;4947834;29;20544;-86
2023/12/25 01:21:28;;;;;;;7.10;1.70;;;11.40;99.90;;;;;;4955350;29;20039;-86
2023/12/25 01:23:54;;;;;;;5.97;1.70;;;11.30;99.90;;;;;;4955074;29;20489;-87
2023/12/25 01:26:21;;;;;;;8.50;1.75;;;11.30;99.90;;;;;;4949620;29;20050;-86
2023/12/25 01:28:47;;;;;;;6.63;1.10;;;11.30;99.90;;;;;;4964201;29;20040;-86
2023/12/25 01:31:14;;;;;;;8.73;1.40;;;11.30;99.90;;;;;;4943830;29;20039;-86
2023/12/25 01:33:40;;;;;;;6.20;1.00;;;11.30;99.90;;;;;;4951214;29;20039;-86
2023/12/25 01:36:07;;;;;;;7.15;1.30;;;11.20;99.90;;;;;;4955054;29;20473;-86
2023/12/25 01:38:34;;;;;;;10.07;1.60;;;11.20;99.90;;;;;;4970905;29;20082;-87
2023/12/25 01:41:00;;;;;;;7.22;1.38;;;11.20;99.90;;;;;;4955118;29;20876;-86
2023/12/25 01:43:27;;;;;;;4.93;1.60;;;11.30;99.90;;;;;;4954172;29;20040;-86
2023/12/25 01:45:54;;;;;;;6.60;1.70;;;11.30;99.90;;;;;;4955085;29;20091;-86
2023/12/25 01:48:22;;;;;;;6.85;1.55;;;11.20;99.90;;;;;;4954584;29;20504;-86
2023/12/25 01:50:50;;;;;;;6.97;1.38;;;11.20;99.90;;;;;;4955148;29;20047;-86
2023/12/25 01:53:16;;;;;;;4.70;1.10;;;11.20;99.90;;;;;;4942174;29;20046;-86
2023/12/25 01:55:43;;;;;;;8.18;1.60;;;11.20;99.90;;;;;;4946429;29;20048;-86
2023/12/25 01:58:10;;;;;;;8.18;1.95;;;11.20;99.90;;;;;;4940409;29;20040;-86
2023/12/25 02:00:36;;;;;;;6.15;1.55;;;11.10;99.90;;;;;;4973842;29;20035;-86
2023/12/25 02:03:03;;;;;;;6.00;1.30;;;11.50;99.90;;;;;;4974063;29;20051;-86
2023/12/25 02:05:30;;;;;;;7.43;1.35;;;11.00;99.90;;;;;;4954736;29;20047;-86
2023/12/25 02:07:58;;;;;;;8.30;1.33;;;11.00;99.90;;;;;;4954315;29;20409;-86
2023/12/25 02:10:29;;;;;;;7.63;1.30;;;11.00;99.90;;;;;;4954225;29;20043;-86
2023/12/25 02:12:57;;;;;;;5.82;1.17;;;11.00;99.90;;;;;;4941787;29;20106;-86
2023/12/25 02:15:24;;;;;;;12.75;1.70;;;11.00;99.90;;;;;;4953938;29;20047;-86
2023/12/25 02:17:52;;;;;;;8.75;1.63;;;10.90;99.90;;;;;;4950866;29;20047;-86
2023/12/25 02:20:20;;;;;;;8.75;1.50;;;10.90;99.90;;;;;;4965092;29;20040;-85
2023/12/25 02:22:47;;;;;;;13.27;1.60;;;10.90;99.90;;;;;;4941596;29;20044;-86
2023/12/25 02:25:33;;;;;;;8.90;1.50;;;10.90;99.90;;;;;;4954084;29;20055;-86
2023/12/25 02:28:00;;;;;;;9.07;1.40;;;11.00;99.90;;;;;;4957262;29;20074;-87
2023/12/25 02:30:28;;;;;;;7.88;1.40;;;10.80;99.90;;;;;;4954064;29;20086;-86
2023/12/25 02:32:54;;;;;;;11.48;1.70;;;10.80;99.90;;;;;;4957451;29;20493;-86
2023/12/25 02:35:21;;;;;;;7.65;1.70;;;10.70;99.90;;;;;;4953496;29;20183;-86
2023/12/25 02:37:49;;;;;;;9.75;1.83;;;10.70;99.90;;;;;;4958014;29;20408;-86
2023/12/25 02:40:15;;;;;;;9.88;1.40;;;10.70;99.90;;;;;;4951303;29;20131;-86
2023/12/25 02:42:42;;;;;;;6.25;1.40;;;10.70;99.90;;;;;;4946397;29;20127;-86
2023/12/25 02:45:08;;;;;;;9.02;1.70;;;10.60;99.90;;;;;;4947358;29;20052;-86
2023/12/25 02:47:35;;;;;;;9.05;1.55;;;10.70;99.90;;;;;;4952118;29;20036;-86
2023/12/25 02:50:02;;;;;;;11.63;1.48;;;10.80;99.90;;;;;;4960076;29;20109;-86
2023/12/25 02:52:28;;;;;;;10.43;2.60;;;10.60;99.90;;;;;;4965364;29;20441;-86
2023/12/25 02:54:55;;;;;;;9.57;1.92;;;10.60;99.90;;;;;;4969775;29;20047;-86
2023/12/25 02:57:21;;;;;;;7.82;1.70;;;10.80;99.90;;;;;;4944373;29;20078;-85
2023/12/25 02:59:48;;;;;;;10.65;2.10;;;10.60;99.90;;;;;;4951187;29;20048;-86
2023/12/25 03:02:15;;;;;;;9.65;1.50;;;10.70;99.90;;;;;;4947700;29;20048;-86
2023/12/25 03:04:42;;;;;;;8.23;1.77;;;10.60;99.90;;;;;;4951926;29;20127;-87
2023/12/25 03:07:08;;;;;;;8.15;1.65;;;10.60;99.90;;;;;;4964580;29;20493;-87
2023/12/25 03:09:35;;;;;;;13.05;1.65;;;10.60;99.90;;;;;;4936047;29;20135;-87
2023/12/25 03:12:01;;;;;;;9.73;1.70;;;10.60;99.90;;;;;;4967355;29;20042;-87
2023/12/25 03:14:28;;;;;;;10.63;1.42;;;10.50;99.90;;;;;;4940809;29;20039;-86
2023/12/25 03:16:55;;;;;;;8.23;1.58;;;10.60;99.90;;;;;;4953084;29;20051;-86
2023/12/25 03:19:21;;;;;;;6.60;1.25;;;10.50;99.90;;;;;;4953521;29;20058;-86
2023/12/25 03:21:48;;;;;;;5.05;1.20;;;10.50;99.90;;;;;;4953568;29;20075;-86
2023/12/25 03:24:15;;;;;;;11.85;1.60;;;10.50;99.90;;;;;;4951270;29;20047;-86
2023/12/25 03:26:42;;;;;;;8.10;1.17;;;10.60;99.90;;;;;;4955180;29;20043;-86
2023/12/25 03:29:09;;;;;;;11.30;1.45;;;10.60;99.90;;;;;;4965209;29;20122;-86
2023/12/25 03:31:36;;;;;;;12.88;1.80;;;10.60;99.90;;;;;;4949552;29;20083;-86
2023/12/25 03:34:02;;;;;;;10.68;1.80;;;10.60;99.90;;;;;;4949695;29;20036;-86
2023/12/25 03:36:29;;;;;;;11.27;1.73;;;10.70;99.90;;;;;;4943826;29;20059;-86
2023/12/25 03:38:56;;;;;;;11.77;1.40;;;10.70;99.90;;;;;;4946505;29;20047;-86
2023/12/25 03:41:22;;;;;;;6.90;1.30;;;10.60;99.90;;;;;;4941049;29;20052;-86
2023/12/25 03:43:49;;;;;;;9.00;1.50;;;10.90;99.90;;;;;;4949802;29;20524;-87
2023/12/25 03:46:15;;;;;;;8.32;1.40;;;10.80;99.90;;;;;;4952904;29;20040;-86
2023/12/25 03:48:43;;;;;;;8.52;1.30;;;10.70;99.90;;;;;;4952947;29;20123;-85
2023/12/25 03:51:09;;;;;;;8.77;1.30;;;10.70;99.90;;;;;;4941809;29;20100;-87
2023/12/25 03:53:36;;;;;;;8.60;1.40;;;10.70;99.90;;;;;;4964357;29;20072;-87
2023/12/25 03:56:03;;;;;;;11.88;2.15;;;10.70;99.90;;;;;;4968664;29;20126;-87
2023/12/25 03:58:29;;;;;;;7.28;1.55;;;10.80;99.90;;;;;;4952684;29;20067;-86
2023/12/25 04:00:56;;;;;;;10.45;1.42;;;10.70;99.90;;;;;;4952923;29;20098;-86
2023/12/25 04:03:23;;;;;;;12.70;1.75;;;10.80;99.90;;;;;;4957535;29;20536;-86
2023/12/25 04:05:49;;;;;;;6.30;1.02;;;10.90;99.90;;;;;;4952685;29;20069;-86
2023/12/25 04:08:16;;;;;;;12.77;1.70;;;10.90;99.90;;;;;;4955665;29;20051;-85
2023/12/25 04:10:42;;;;;;;8.73;1.50;;;10.70;99.90;;;;;;4972228;29;20039;-86
2023/12/25 04:13:09;;;;;;;8.77;1.45;;;10.70;99.90;;;;;;4956477;29;20046;-86
2023/12/25 04:15:36;;;;;;;9.77;2.08;;;11.00;99.90;;;;;;4942117;29;20131;-86
2023/12/25 04:18:02;;;;;;;7.88;1.52;;;10.60;99.90;;;;;;4969618;29;20048;-86
2023/12/25 04:20:29;;;;;;;8.55;1.80;;;10.60;99.90;;;;;;4956132;29;20095;-86
2023/12/25 04:22:56;;;;;;;11.55;1.55;;;10.60;99.90;;;;;;4943899;29;20039;-86
2023/12/25 04:25:22;;;;;;;8.27;1.80;;;10.60;99.90;;;;;;4945274;29;20417;-86
2023/12/25 04:27:50;;;;;;;7.00;1.70;;;10.60;99.90;;;;;;4970459;29;20048;-87
2023/12/25 04:30:17;;;;;;;9.48;1.30;;;10.60;99.90;;;;;;4944686;29;20036;-86
2023/12/25 04:32:44;;;;;;;10.15;1.80;;;10.50;99.90;;;;;;4955759;29;20397;-86
2023/12/25 04:35:10;;;;;;;11.95;1.60;;;10.60;99.90;;;;;;4970372;29;20083;-86
2023/12/25 04:37:38;;;;;;;8.95;1.42;;;10.50;99.90;;;;;;4967232;29;20086;-85
2023/12/25 04:40:05;;;;;;;9.10;1.63;;;10.50;99.90;;;;;;4955650;29;20046;-87
2023/12/25 04:42:31;;;;;;;9.23;1.85;;;10.50;99.90;;;;;;4956203;29;20071;-86
2023/12/25 04:44:58;;;;;;;13.57;1.75;;;10.50;99.90;;;;;;4955641;29;20137;-86
2023/12/25 04:47:24;;;;;;;11.85;1.73;;;10.50;99.90;;;;;;4948917;29;20124;-86
2023/12/25 04:49:51;;;;;;;5.63;1.25;;;10.50;99.90;;;;;;4970068;29;20489;-86
2023/12/25 04:52:18;;;;;;;16.13;2.03;;;10.50;99.90;;;;;;4944100;29;20126;-86
2023/12/25 04:54:44;;;;;;;13.88;1.75;;;11.00;99.90;;;;;;4955514;29;20508;-86
2023/12/25 04:57:11;;;;;;;11.73;1.95;;;10.50;99.90;;;;;;4956225;29;20044;-86
2023/12/25 04:59:37;;;;;;;11.57;1.70;;;10.50;99.90;;;;;;4969129;29;20130;-86
2023/12/25 05:02:04;;;;;;;8.05;1.25;;;10.70;99.90;;;;;;4941823;29;20040;-86
2023/12/25 05:04:31;;;;;;;10.95;1.70;;;10.40;99.90;;;;;;4954403;29;20443;-86
2023/12/25 05:06:58;;;;;;;10.88;1.70;;;10.40;99.90;;;;;;4936467;29;20052;-86
2023/12/25 05:09:25;;;;;;;10.40;1.80;;;10.80;99.90;;;;;;4955144;29;20547;-85
2023/12/25 05:11:51;;;;;;;9.98;1.55;;;10.50;99.90;;;;;;4955406;29;20039;-86
2023/12/25 05:14:18;;;;;;;9.50;1.70;;;10.40;99.90;;;;;;4938566;29;20540;-86
2023/12/25 05:16:44;;;;;;;5.95;1.50;;;10.40;99.90;;;;;;4957943;29;20048;-86
2023/12/25 05:19:12;;;;;;;6.35;1.48;;;10.40;99.90;;;;;;4935254;29;20043;-86
2023/12/25 05:21:39;;;;;;;10.77;1.95;;;10.40;99.90;;;;;;4948677;29;20461;-86
2023/12/25 05:24:06;;;;;;;9.95;1.70;;;10.30;99.90;;;;;;4953024;29;20047;-86
2023/12/25 05:26:32;;;;;;;7.82;1.42;;;10.30;99.90;;;;;;4948233;29;20047;-86
2023/12/25 05:28:59;;;;;;;7.90;2.30;;;10.30;99.90;;;;;;4949898;29;20044;-86
2023/12/25 05:31:26;;;;;;;9.40;1.75;;;10.40;99.90;;;;;;4963530;29;20051;-86
2023/12/25 05:33:53;;;;;;;9.20;1.52;;;10.30;99.90;;;;;;4950170;29;20040;-86
2023/12/25 05:36:20;;;;;;;8.75;1.73;;;10.20;99.90;;;;;;4955101;29;20464;-86
2023/12/25 05:38:46;;;;;;;10.43;1.52;;;10.20;99.90;;;;;;4937261;29;20035;-86
2023/12/25 05:41:13;;;;;;;7.30;1.55;;;10.10;99.90;;;;;;4945039;29;20043;-86
2023/12/25 05:43:40;;;;;;;11.52;1.85;;;10.10;99.90;;;;;;4952052;29;20044;-86
2023/12/25 05:46:06;;;;;;;8.88;1.52;;;10.20;99.90;;;;;;4936582;29;20036;-86
2023/12/25 05:48:33;;;;;;;7.15;1.38;;;10.20;99.90;;;;;;4951530;29;20509;-86
2023/12/25 05:51:00;;;;;;;8.98;1.70;;;10.80;99.90;;;;;;4951254;29;20516;-86
2023/12/25 05:53:27;;;;;;;9.60;1.58;;;10.00;99.90;;;;;;4954791;29;20044;-86
2023/12/25 05:55:53;;;;;;;8.80;1.75;;;10.00;99.90;;;;;;4944621;29;20501;-86
2023/12/25 05:58:20;;;;;;;10.15;1.80;;;10.00;99.90;;;;;;4979944;28;20044;-86
2023/12/25 06:00:46;;;;;;;10.57;1.70;;;10.00;99.90;;;;;;4946166;29;20511;-86
2023/12/25 06:03:13;;;;;;;9.73;1.70;;;10.30;99.90;;;;;;4938524;29;20050;-86
2023/12/25 06:05:41;;;;;;;14.85;2.38;;;9.90;99.90;;;;;;4952344;29;20068;-86
2023/12/25 06:08:07;;;;;;;8.90;1.67;;;9.90;99.90;;;;;;4954289;29;20066;-86
2023/12/25 06:10:34;;;;;;;9.00;1.48;;;9.90;99.90;;;;;;4954052;29;20476;-86
2023/12/25 06:13:01;;;;;;;12.20;2.00;;;10.30;99.90;;;;;;4942217;29;20480;-86
2023/12/25 06:15:27;;;;;;;8.85;1.75;;;9.80;99.90;;;;;;4948403;29;20040;-86
2023/12/25 06:17:54;;;;;;;15.18;1.90;;;10.10;99.90;;;;;;4954348;29;20683;-85
2023/12/25 06:20:23;;;;;;;14.00;1.92;;;10.10;99.90;;;;;;4945357;29;20068;-86
2023/12/25 06:22:50;;;;;;;14.00;2.30;;;9.80;99.90;;;;;;4966639;29;20043;-86
2023/12/25 06:25:16;;;;;;;7.93;1.83;;;9.80;99.90;;;;;;4969995;29;20420;-86
2023/12/25 06:27:43;;;;;;;12.70;2.30;;;9.70;99.90;;;;;;4941660;29;20040;-86
2023/12/25 06:30:10;;;;;;;13.27;1.80;;;9.70;99.90;;;;;;4953984;29;20098;-86
2023/12/25 06:32:36;;;;;;;9.70;1.80;;;9.70;99.90;;;;;;4949993;29;20130;-86
2023/12/25 06:35:03;;;;;;;11.18;1.80;;;9.70;99.90;;;;;;4953854;29;20519;-85
2023/12/25 06:37:30;;;;;;;19.15;2.08;;;9.70;99.90;;;;;;4937926;29;20050;-86
2023/12/25 06:39:56;;;;;;;11.65;2.03;;;9.70;99.90;;;;;;4946607;29;20040;-86
2023/12/25 06:42:23;;;;;;;9.55;1.60;;;9.70;99.90;;;;;;4953587;29;20099;-87
2023/12/25 06:44:50;;;;;;;11.23;1.98;;;9.80;99.90;;;;;;4941611;29;20131;-87
2023/12/25 06:47:16;;;;;;;11.75;2.20;;;9.70;99.90;;;;;;4953209;29;20036;-86
2023/12/25 06:49:43;;;;;;;9.25;2.38;;;9.60;99.90;;;;;;4953690;29;20070;-87
2023/12/25 06:52:10;;;;;;;10.63;1.70;;;9.60;99.90;;;;;;4940995;29;20043;-86
2023/12/25 06:54:36;;;;;;;13.68;1.63;;;10.30;99.90;;;;;;4953457;29;20134;-86
2023/12/25 06:57:03;;;;;;;6.75;1.60;;;9.90;99.90;;;;;;4947033;29;20398;-86
2023/12/25 06:59:30;;;;;;;11.38;1.92;;;9.50;99.90;;;;;;4953496;29;20050;-86
2023/12/25 07:01:56;;;;;;;12.13;1.77;;;9.50;99.90;;;;;;4946172;29;20044;-86
2023/12/25 07:04:23;;;;;;;11.32;1.98;;;9.50;99.90;;;;;;4949218;29;20528;-86
2023/12/25 07:06:50;;;;;;;11.57;1.98;;;9.50;99.90;;;;;;4943368;29;20057;-86
2023/12/25 07:09:16;;;;;;;8.70;1.70;;;9.60;99.90;;;;;;4943314;29;20052;-86
2023/12/25 07:11:43;;;;;;;9.05;2.00;;;9.40;99.90;;;;;;4953631;29;20051;-86
2023/12/25 07:14:10;;;;;;;11.85;1.90;;;9.50;99.90;;;;;;4969123;29;20047;-86
2023/12/25 07:16:36;;;;;;;7.45;1.77;;;9.50;99.90;;;;;;4948045;29;20076;-86
2023/12/25 07:19:04;;;;;;;11.80;1.48;;;9.50;99.90;;;;;;4945683;29;20409;-86
2023/12/25 07:21:30;;;;;;;11.18;1.80;;;9.50;99.90;;;;;;4953387;29;20043;-86
2023/12/25 07:23:58;;;;;;;10.38;1.55;;;9.50;99.90;;;;;;4953267;29;20512;-86
2023/12/25 07:26:24;;;;;;;10.60;2.03;;;9.50;99.90;;;;;;4947326;29;20446;-86
2023/12/25 07:28:51;;;;;;;13.25;2.28;;;10.30;99.90;;;;;;4978766;29;20171;-86
2023/12/25 07:31:20;;;;;;;10.63;1.75;;;9.70;99.90;;;;;;4953325;29;20036;-86
2023/12/25 07:33:47;;;;;;;12.10;2.47;;;9.50;99.90;;;;;;4952985;29;20082;-86
2023/12/25 07:36:14;;;;;;;14.75;1.80;;;9.40;99.90;;;;;;4945685;29;20048;-86
2023/12/25 07:38:41;;;;;;;20.25;2.28;;;9.60;99.90;;;;;;4955267;29;20124;-86
2023/12/25 07:41:11;;;;;;;14.63;2.08;;;9.60;99.90;;;;;;4961272;29;20044;-86
2023/12/25 07:43:38;;;;;;;9.93;1.88;;;9.70;99.90;;;;;;4950673;29;20047;-86
2023/12/25 07:46:08;;;;;;;9.52;1.58;;;10.00;99.90;;;;;;4968500;29;20040;-86
2023/12/25 07:48:35;;;;;;;9.27;1.55;;;9.40;99.90;;;;;;4952730;29;20063;-86
2023/12/25 07:51:02;;;;;;;9.10;1.95;;;9.50;99.90;;;;;;4950504;29;20043;-86
2023/12/25 07:53:29;;;;;;;7.35;1.73;;;9.40;99.90;;;;;;4949396;29;20047;-86
2023/12/25 07:55:56;;;;;;;11.18;1.88;;;9.40;99.90;;;;;;4938396;29;20039;-86
2023/12/25 07:58:23;;;;;;;11.30;1.70;;;9.70;99.90;;;;;;4945253;29;20036;-86
2023/12/25 08:00:49;;;;;;;14.60;2.05;;;9.40;99.90;;;;;;4950253;29;20126;-86
2023/12/25 08:03:16;;;;;;;12.32;2.00;;;10.00;99.90;;;;;;4946693;29;20908;-85
2023/12/25 08:05:43;;;;;;;9.30;1.63;;;9.50;99.90;;;;;;4961223;29;20040;-86
2023/12/25 08:08:12;;;;;;;17.58;1.80;;;9.50;99.90;;;;;;4962752;29;20060;-86
2023/12/25 08:10:39;;;;;;;11.57;1.70;;;9.50;99.90;;;;;;4926964;29;20067;-86
2023/12/25 08:13:06;;;;;;;12.63;1.80;;;9.60;99.90;;;;;;4927598;29;20084;-86
2023/12/25 08:15:32;;;;;;;11.73;2.15;;;9.50;99.90;;;;;;4928490;29;20048;-86
2023/12/25 08:17:59;;;;;;;13.15;1.80;;;9.60;99.90;;;;;;4931111;29;20055;-86
2023/12/25 08:20:26;;;;;;;12.85;1.55;;;9.50;99.90;;;;;;4937700;29;20040;-85
2023/12/25 08:22:52;;;;;;;13.13;2.00;;;9.60;99.90;;;;;;4936595;29;20040;-86
2023/12/25 08:25:19;;;;;;;7.20;1.50;;;9.90;99.90;;;;;;4949376;29;20421;-86
2023/12/25 08:27:46;;;;;;;14.07;2.08;;;9.60;99.90;;;;;;4937353;29;20100;-85
2023/12/25 08:30:12;;;;;;;9.77;1.65;;;10.20;99.90;;;;;;4939774;29;20115;-86
2023/12/25 08:32:39;;;;;;;12.10;1.95;;;9.60;99.90;;;;;;4936799;29;20079;-86
2023/12/25 08:35:06;;;;;;;8.63;1.80;;;9.90;99.90;;;;;;4935575;29;20039;-85
2023/12/25 08:37:32;;;;;;;8.30;1.38;;;9.60;99.90;;;;;;4958926;29;20126;-85
2023/12/25 08:39:59;;;;;;;13.90;2.13;;;9.50;99.90;;;;;;4940756;29;20044;-85
2023/12/25 08:42:26;;;;;;;12.05;1.77;;;9.70;99.90;;;;;;4927448;29;20489;-85
2023/12/25 08:44:52;;;;;;;11.05;2.08;;;9.50;99.90;;;;;;4945828;29;20489;-85
2023/12/25 08:47:19;;;;;;;11.95;2.15;;;9.50;99.90;;;;;;4930018;29;20042;-84
2023/12/25 08:49:45;;;;;;;8.52;2.10;;;9.70;99.90;;;;;;4935358;29;20485;-85
2023/12/25 08:52:12;;;;;;;10.18;1.73;;;10.10;99.90;;;;;;4935442;29;20516;-85
2023/12/25 08:54:39;;;;;;;12.02;1.92;;;9.60;99.90;;;;;;4937276;29;20040;-85
2023/12/25 08:57:05;;;;;;;8.48;1.58;;;10.10;99.90;;;;;;4929348;29;20043;-85
2023/12/25 08:59:32;;;;;;;19.67;1.95;;;9.70;99.90;;;;;;4922122;29;20432;-85
2023/12/25 09:01:59;;;;;;;8.55;1.40;;;10.00;99.90;;;;;;4932618;29;20040;-85
2023/12/25 09:04:25;;;;;;;10.32;1.80;;;9.50;99.90;;;;;;4940556;29;20146;-86
2023/12/25 09:06:52;;;;;;;5.65;1.38;;;9.50;99.90;;;;;;4930324;29;20122;-83
2023/12/25 09:09:19;;;;;;;8.88;1.88;;;9.40;99.90;;;;;;4937212;29;20412;-83
2023/12/25 09:11:47;;;;;;;11.70;1.77;;;10.10;99.90;;;;;;4954565;29;20044;-84
2023/12/25 09:14:14;;;;;;;12.65;2.22;;;9.40;99.90;;;;;;4950569;29;20449;-84
2023/12/25 09:16:40;;;;;;;8.55;1.60;;;9.30;99.90;;;;;;4951963;29;20115;-83
2023/12/25 09:19:07;;;;;;;11.75;1.70;;;9.50;99.90;;;;;;4963837;29;20576;-85
2023/12/25 09:21:38;;;;;;;10.25;1.60;;;9.30;99.90;;;;;;4955107;29;20111;-85
2023/12/25 09:24:05;;;;;;;6.07;1.50;;;9.30;99.90;;;;;;4954394;29;20051;-86
2023/12/25 09:26:31;;;;;;;10.73;2.00;;;9.30;99.90;;;;;;4954153;29;20405;-86
2023/12/25 09:28:58;;;;;;;10.70;1.65;;;9.30;99.90;;;;;;4951028;29;20051;-85
2023/12/25 09:31:25;;;;;;;9.50;1.40;;;9.30;99.90;;;;;;4948877;29;20052;-85
2023/12/25 09:33:51;;;;;;;10.02;1.30;;;9.30;99.90;;;;;;4952502;29;20055;-86
2023/12/25 09:36:18;;;;;;;11.63;1.65;;;9.40;99.90;;;;;;4946282;29;20075;-85
2023/12/25 09:38:45;;;;;;;6.32;1.73;;;9.40;99.90;;;;;;4952387;29;20051;-85
2023/12/25 09:41:11;;;;;;;11.25;1.27;;;9.30;99.90;;;;;;4942960;29;20493;-86
2023/12/25 09:43:39;;;;;;;8.38;1.88;;;9.40;99.90;;;;;;4949561;29;20044;-85
2023/12/25 09:46:06;;;;;;;5.00;1.30;;;9.30;99.90;;;;;;4946757;29;20118;-86
2023/12/25 09:48:33;;;;;;;11.05;1.50;;;9.40;99.90;;;;;;4964533;29;20036;-85
2023/12/25 09:51:03;;;;;;;4.75;1.10;;;9.80;99.90;;;;;;4953396;29;20143;-86
2023/12/25 09:53:30;;;;;;;6.93;1.33;;;9.30;99.90;;;;;;4941770;29;20039;-84
2023/12/25 09:55:58;;;;;;;10.13;1.83;;;9.40;99.90;;;;;;4954478;29;20398;-85
2023/12/25 09:58:27;;;;;;;8.70;1.45;;;9.30;99.90;;;;;;4954254;29;20449;-84
2023/12/25 10:00:55;;;;;;;7.63;1.38;;;9.30;99.90;;;;;;4949933;29;20042;-85
2023/12/25 10:03:22;;;;;;;5.97;1.70;;;10.10;99.90;;;;;;4953127;29;20043;-85
2023/12/25 10:05:49;;;;;;;8.85;1.33;;;9.30;99.90;;;;;;4951991;29;20075;-84
2023/12/25 10:08:15;;;;;;;5.22;1.30;;;9.20;99.90;;;;;;4947980;29;20075;-85
2023/12/25 10:10:45;;;;;;;8.85;1.45;;;10.00;99.90;;;;;;4957163;29;20512;-85
2023/12/25 10:13:12;;;;;;;7.82;1.33;;;9.30;99.90;;;;;;4949620;29;20035;-85
2023/12/25 10:15:39;;;;;;;9.25;1.40;;;9.40;99.90;;;;;;4952985;29;20131;-84
2023/12/25 10:18:15;;;;;;;8.45;1.80;;;9.30;99.90;;;;;;4941298;29;20080;-85
2023/12/25 10:20:53;;;;;;;;;;;9.30;99.90;;;;;;4952509;29;20047;-84
2023/12/25 10:23:34;;;;;;;6.07;1.30;;;10.00;99.90;;;;;;4942635;29;19926;-84
2023/12/25 10:26:03;;;;;;;6.55;1.00;;;9.30;99.90;;;;;;4953568;29;20432;-85
2023/12/25 10:28:36;;;;;;;4.18;1.10;;;9.20;99.90;;;;;;4944436;29;20820;-84
2023/12/25 10:31:07;;;;;;;8.13;1.83;;;9.30;99.90;;;;;;4963055;29;20067;-84
2023/12/25 10:33:37;;;;;;;5.28;1.52;;;9.30;99.90;;;;;;4961864;29;22860;-84
2023/12/25 10:36:10;;;;;;;7.30;1.33;;;9.30;99.90;;;;;;4953448;29;20044;-84
2023/12/25 10:38:40;;;;;;;6.43;1.52;;;9.30;99.90;;;;;;4940285;29;20047;-84
2023/12/25 10:41:18;;;;;;;7.05;1.15;;;9.30;99.90;;;;;;4952965;29;20465;-83
2023/12/25 10:43:57;;;;;;;7.75;1.30;;;9.30;99.90;;;;;;4953318;29;20553;-87
2023/12/25 10:46:29;;;;;;;7.53;1.50;;;9.30;99.90;;;;;;4937999;29;20055;-87
2023/12/25 10:48:57;;;;;;;10.48;1.40;;;9.20;99.90;;;;;;4963286;29;20039;-85
2023/12/25 10:51:27;;;;;;;7.85;1.50;;;9.30;99.90;;;;;;4953005;29;20035;-86
2023/12/25 10:54:00;;;;;;;10.23;1.30;;;9.20;99.90;;;;;;4948684;29;20044;-86
2023/12/25 10:56:30;;;;;;;6.78;1.10;;;9.60;99.90;;;;;;4953509;29;20063;-87
2023/12/25 10:59:10;;;;;;;9.95;1.40;;;9.30;99.90;;;;;;4945729;29;20047;-86
2023/12/25 11:01:39;;;;;;;11.63;1.58;;;9.30;99.90;;;;;;4939860;29;20520;-86
2023/12/25 11:04:06;;;;;;;12.77;1.90;;;9.30;99.90;;;;;;4961022;29;20047;-86
2023/12/25 11:06:34;;;;;;;12.80;1.50;;;10.20;99.90;;;;;;4952399;29;20139;-85
2023/12/25 11:09:01;;;;;;;9.32;1.60;;;9.30;99.90;;;;;;4949916;29;20072;-86
2023/12/25 11:11:30;;;;;;;7.70;1.20;;;9.30;99.90;;;;;;4957321;29;20495;-86
2023/12/25 11:13:57;;;;;;;11.13;1.38;;;9.40;99.90;;;;;;4936018;29;20043;-86
2023/12/25 11:16:24;;;;;;;7.50;1.33;;;9.40;99.90;;;;;;4949942;29;20131;-86
2023/12/25 11:18:51;;;;;;;6.97;1.38;;;9.60;99.90;;;;;;4944937;29;20120;-85
2023/12/25 11:21:28;;;;;;;6.03;1.55;;;9.70;99.90;;;;;;4941383;29;20044;-86
2023/12/25 11:23:58;;;;;;;7.90;1.20;;;9.60;99.90;;;;;;4947454;29;20051;-86
2023/12/25 11:26:29;;;;;;;8.52;1.33;;;9.70;99.90;;;;;;4963007;29;20119;-86
2023/12/25 11:28:58;;;;;;;8.07;2.08;;;9.70;99.90;;;;;;4946797;29;20084;-86
2023/12/25 11:31:27;;;;;;;12.77;1.92;;;9.70;99.90;;;;;;4947093;29;20075;-85
2023/12/25 11:34:26;;;;;;;14.10;1.95;;;9.70;99.90;;;;;;4945575;29;20065;-86
2023/12/25 11:36:58;;;;;;;13.65;2.30;;;9.70;99.90;;;;;;4967447;29;20043;-85
2023/12/25 11:39:26;;;;;;;9.60;1.52;;;9.80;99.90;;;;;;4951812;29;20106;-85
2023/12/25 11:41:54;;;;;;;12.65;2.00;;;9.70;99.90;;;;;;4952881;29;20508;-86
2023/12/25 11:44:33;;;;;;;9.15;2.13;;;9.90;99.90;;;;;;4952320;29;20126;-85
2023/12/25 11:47:02;;;;;;;10.48;1.80;;;9.60;99.90;;;;;;4952448;29;20091;-85
2023/12/25 11:49:32;;;;;;;13.10;1.90;;;9.60;99.90;;;;;;4933514;29;20040;-84
2023/12/25 11:51:58;;;;;;;14.82;2.25;;;9.60;99.90;;;;;;4945248;29;20394;-84
2023/12/25 11:54:33;;;;;;;10.05;1.85;;;9.60;99.90;;;;;;4945514;29;20080;-83
2023/12/25 11:57:15;;;;;;;14.38;1.77;;;9.60;99.90;;;;;;4935674;29;20052;-85
2023/12/25 11:59:43;;;;;;;10.77;2.25;;;9.60;99.90;;;;;;4940730;29;20072;-84
2023/12/25 12:02:12;;;;;;;11.63;2.00;;;9.60;99.90;;;;;;4945483;29;20035;-84
2023/12/25 12:04:39;;;;;;;11.10;1.80;;;10.30;99.90;;;;;;4935683;29;20048;-83
2023/12/25 12:07:05;;;;;;;13.50;3.28;;;9.60;99.90;;;;;;4948459;29;20389;-83
2023/12/25 12:09:32;;;;;;;10.93;2.00;;;9.70;99.90;;;;;;4946586;29;20094;-83
2023/12/25 12:11:59;;;;;;;15.27;2.33;;;9.70;99.90;;;;;;4956705;29;20044;-83
2023/12/25 12:14:25;;;;;;;11.63;2.10;;;9.70;99.90;;;;;;4943623;29;20076;-84
2023/12/25 12:16:52;;;;;;;11.07;2.05;;;9.70;99.90;;;;;;4938018;29;20048;-84
2023/12/25 12:19:19;;;;;;;7.45;2.25;;;9.70;99.90;;;;;;4938268;29;20068;-84
2023/12/25 12:21:47;;;;;;;20.85;3.90;;;9.70;99.90;;;;;;4945241;29;20043;-84
2023/12/25 12:24:28;;;;;;;15.02;2.63;;;9.70;99.90;;;;;;4940312;29;20048;-83
2023/12/25 12:27:08;;;;;;;19.45;2.47;;;9.70;99.90;;;;;;4962425;29;20120;-83
2023/12/25 12:29:34;;;;;;;14.18;2.20;;;9.70;99.90;;;;;;4953754;29;20444;-85
2023/12/25 12:32:01;;;;;;;13.93;2.05;;;9.70;99.90;;;;;;4952369;29;20038;-84
2023/12/25 12:34:28;;;;;;;16.98;2.80;;;9.70;99.90;;;;;;4953059;29;20043;-85
2023/12/25 12:37:05;;;;;;;15.20;2.35;;;9.70;99.90;;;;;;4968576;29;20054;-85
2023/12/25 12:39:32;;;;;;;11.13;2.03;;;9.70;99.90;;;;;;4963729;29;20705;-85
2023/12/25 12:41:59;;;;;;;21.17;2.25;;;9.70;99.90;;;;;;4949757;29;20048;-85
2023/12/25 12:44:26;;;;;;;10.98;2.38;;;9.80;99.90;;;;;;4939593;29;20044;-85
2023/12/25 12:46:53;;;;;;;13.05;2.58;;;9.70;99.90;;;;;;4942183;29;20482;-85
2023/12/25 12:49:20;;;;;;;10.85;2.25;;;9.70;99.90;;;;;;4950296;29;20039;-85